sensor_id;sensor_type;location;lat;lon;timestamp;temperature;humidity
4312;DHT22;2169;49.086;9.284;2023-02-16T00:01:23;1.30;66.20
4312;DHT22;2169;49.086;9.284;2023-02-16T00:03:52;1.30;66.30
4312;DHT22;2169;49.086;9.284;2023-02-16T00:06:19;1.30;66.30
4312;DHT22;2169;49.086;9.284;2023-02-16T00:08:47;1.20;66.20
4312;DHT22;2169;49.086;9.284;2023-02-16T00:11:18;1.20;66.20
4312;DHT22;2169;49.086;9.284;2023-02-16T00:14:06;1.20;66.20
4312;DHT22;2169;49.086;9.284;2023-02-16T00:16:33;1.10;66.20
4312;DHT22;2169;49.086;9.284;2023-02-16T00:19:00;1.10;66.20
4312;DHT22;2169;49.086;9.284;2023-02-16T00:21:27;1.10;66.20
4312;DHT22;2169;49.086;9.284;2023-02-16T00:23:54;1.00;66.80
4312;DHT22;2169;49.086;9.284;2023-02-16T00:26:23;1.00;66.20
4312;DHT22;2169;49.086;9.284;2023-02-16T00:28:52;1.00;66.20
4312;DHT22;2169;49.086;9.284;2023-02-16T00:31:21;1.00;66.20
4312;DHT22;2169;49.086;9.284;2023-02-16T00:33:49;1.00;66.30
4312;DHT22;2169;49.086;9.284;2023-02-16T00:36:15;0.90;66.20
4312;DHT22;2169;49.086;9.284;2023-02-16T00:38:42;0.90;66.30
4312;DHT22;2169;49.086;9.284;2023-02-16T00:41:15;0.90;66.60
4312;DHT22;2169;49.086;9.284;2023-02-16T00:44:00;0.90;66.30
4312;DHT22;2169;49.086;9.284;2023-02-16T00:46:27;0.90;66.40
4312;DHT22;2169;49.086;9.284;2023-02-16T00:48:53;0.80;66.30
4312;DHT22;2169;49.086;9.284;2023-02-16T00:51:20;0.80;66.30
4312;DHT22;2169;49.086;9.284;2023-02-16T00:53:47;0.80;66.30
4312;DHT22;2169;49.086;9.284;2023-02-16T00:56:17;0.80;66.40
4312;DHT22;2169;49.086;9.284;2023-02-16T00:58:45;0.80;66.40
4312;DHT22;2169;49.086;9.284;2023-02-16T01:01:15;0.80;66.40
4312;DHT22;2169;49.086;9.284;2023-02-16T01:03:43;0.80;66.40
4312;DHT22;2169;49.086;9.284;2023-02-16T01:06:10;0.80;66.40
4312;DHT22;2169;49.086;9.284;2023-02-16T01:09:02;0.70;66.30
4312;DHT22;2169;49.086;9.284;2023-02-16T01:11:50;0.70;66.30
4312;DHT22;2169;49.086;9.284;2023-02-16T01:14:17;0.60;66.20
4312;DHT22;2169;49.086;9.284;2023-02-16T01:16:45;0.60;66.20
4312;DHT22;2169;49.086;9.284;2023-02-16T01:19:12;0.60;66.20
4312;DHT22;2169;49.086;9.284;2023-02-16T01:21:39;0.50;66.20
4312;DHT22;2169;49.086;9.284;2023-02-16T01:24:06;0.50;66.20
4312;DHT22;2169;49.086;9.284;2023-02-16T01:26:37;0.50;66.30
4312;DHT22;2169;49.086;9.284;2023-02-16T01:29:04;0.50;66.40
4312;DHT22;2169;49.086;9.284;2023-02-16T01:31:31;0.40;66.30
4312;DHT22;2169;49.086;9.284;2023-02-16T01:33:59;0.40;66.30
4312;DHT22;2169;49.086;9.284;2023-02-16T01:36:30;0.40;66.40
4312;DHT22;2169;49.086;9.284;2023-02-16T01:38:58;0.40;66.40
4312;DHT22;2169;49.086;9.284;2023-02-16T01:41:38;0.30;66.40
4312;DHT22;2169;49.086;9.284;2023-02-16T01:44:11;0.30;66.40
4312;DHT22;2169;49.086;9.284;2023-02-16T01:46:43;0.30;66.50
4312;DHT22;2169;49.086;9.284;2023-02-16T01:49:14;0.30;66.50
4312;DHT22;2169;49.086;9.284;2023-02-16T01:51:50;0.30;66.50
4312;DHT22;2169;49.086;9.284;2023-02-16T01:54:26;0.30;66.50
4312;DHT22;2169;49.086;9.284;2023-02-16T01:56:58;0.30;66.50
4312;DHT22;2169;49.086;9.284;2023-02-16T01:59:32;0.20;66.40
4312;DHT22;2169;49.086;9.284;2023-02-16T02:02:03;0.20;66.40
4312;DHT22;2169;49.086;9.284;2023-02-16T02:04:37;0.20;66.50
4312;DHT22;2169;49.086;9.284;2023-02-16T02:07:26;0.20;66.50
4312;DHT22;2169;49.086;9.284;2023-02-16T02:09:58;0.20;66.50
4312;DHT22;2169;49.086;9.284;2023-02-16T02:12:30;0.10;66.40
4312;DHT22;2169;49.086;9.284;2023-02-16T02:14:58;0.10;66.50
4312;DHT22;2169;49.086;9.284;2023-02-16T02:17:25;0.10;66.40
4312;DHT22;2169;49.086;9.284;2023-02-16T02:20:03;0.10;66.40
4312;DHT22;2169;49.086;9.284;2023-02-16T02:23:06;0.00;66.40
4312;DHT22;2169;49.086;9.284;2023-02-16T02:29:02;0.00;66.40
4312;DHT22;2169;49.086;9.284;2023-02-16T02:31:43;0.00;66.40
4312;DHT22;2169;49.086;9.284;2023-02-16T02:34:22;-0.10;66.30
4312;DHT22;2169;49.086;9.284;2023-02-16T02:37:02;-0.10;66.30
4312;DHT22;2169;49.086;9.284;2023-02-16T02:39:36;-0.10;66.40
4312;DHT22;2169;49.086;9.284;2023-02-16T02:42:08;-0.20;66.40
4312;DHT22;2169;49.086;9.284;2023-02-16T02:44:41;-0.20;66.40
4312;DHT22;2169;49.086;9.284;2023-02-16T02:47:08;-0.20;66.50
4312;DHT22;2169;49.086;9.284;2023-02-16T02:49:35;-0.20;66.50
4312;DHT22;2169;49.086;9.284;2023-02-16T02:52:02;-0.20;66.50
4312;DHT22;2169;49.086;9.284;2023-02-16T02:54:31;-0.30;66.40
4312;DHT22;2169;49.086;9.284;2023-02-16T02:57:18;-0.20;66.60
4312;DHT22;2169;49.086;9.284;2023-02-16T03:00:08;-0.20;66.60
4312;DHT22;2169;49.086;9.284;2023-02-16T03:02:57;-0.30;66.50
4312;DHT22;2169;49.086;9.284;2023-02-16T03:05:26;-0.30;66.60
4312;DHT22;2169;49.086;9.284;2023-02-16T03:07:59;-0.30;66.60
4312;DHT22;2169;49.086;9.284;2023-02-16T03:10:40;-0.30;66.60
4312;DHT22;2169;49.086;9.284;2023-02-16T03:13:30;-0.40;66.50
4312;DHT22;2169;49.086;9.284;2023-02-16T03:16:02;-0.40;66.60
4312;DHT22;2169;49.086;9.284;2023-02-16T03:18:34;-0.40;67.30
4312;DHT22;2169;49.086;9.284;2023-02-16T03:21:18;-0.40;66.60
4312;DHT22;2169;49.086;9.284;2023-02-16T03:24:05;-0.40;66.70
4312;DHT22;2169;49.086;9.284;2023-02-16T03:26:52;-0.40;66.70
4312;DHT22;2169;49.086;9.284;2023-02-16T03:29:37;-0.40;66.70
4312;DHT22;2169;49.086;9.284;2023-02-16T03:32:06;-0.40;66.70
4312;DHT22;2169;49.086;9.284;2023-02-16T03:34:35;-0.40;66.70
4312;DHT22;2169;49.086;9.284;2023-02-16T03:37:03;-0.40;66.80
4312;DHT22;2169;49.086;9.284;2023-02-16T03:39:31;-0.50;66.70
4312;DHT22;2169;49.086;9.284;2023-02-16T03:42:19;-0.50;66.70
4312;DHT22;2169;49.086;9.284;2023-02-16T03:44:46;-0.50;66.80
4312;DHT22;2169;49.086;9.284;2023-02-16T03:47:14;-0.50;66.80
4312;DHT22;2169;49.086;9.284;2023-02-16T03:49:41;-0.50;66.90
4312;DHT22;2169;49.086;9.284;2023-02-16T03:52:08;-0.50;66.80
4312;DHT22;2169;49.086;9.284;2023-02-16T03:54:35;-0.50;66.90
4312;DHT22;2169;49.086;9.284;2023-02-16T03:57:01;-0.50;66.90
4312;DHT22;2169;49.086;9.284;2023-02-16T03:59:28;-0.50;67.00
4312;DHT22;2169;49.086;9.284;2023-02-16T04:01:55;-0.50;67.00
4312;DHT22;2169;49.086;9.284;2023-02-16T04:04:23;-0.50;67.00
4312;DHT22;2169;49.086;9.284;2023-02-16T04:06:50;-0.50;67.00
4312;DHT22;2169;49.086;9.284;2023-02-16T04:09:17;-0.60;66.90
4312;DHT22;2169;49.086;9.284;2023-02-16T04:11:43;-0.60;67.00
4312;DHT22;2169;49.086;9.284;2023-02-16T04:14:28;-0.60;67.00
4312;DHT22;2169;49.086;9.284;2023-02-16T04:16:54;-0.60;67.00
4312;DHT22;2169;49.086;9.284;2023-02-16T04:19:23;-0.60;67.00
4312;DHT22;2169;49.086;9.284;2023-02-16T04:21:49;-0.60;67.00
4312;DHT22;2169;49.086;9.284;2023-02-16T04:24:18;-0.60;67.10
4312;DHT22;2169;49.086;9.284;2023-02-16T04:26:44;-0.60;67.10
4312;DHT22;2169;49.086;9.284;2023-02-16T04:29:11;-0.60;67.10
4312;DHT22;2169;49.086;9.284;2023-02-16T04:31:38;-0.60;67.20
4312;DHT22;2169;49.086;9.284;2023-02-16T04:34:05;-0.60;67.20
4312;DHT22;2169;49.086;9.284;2023-02-16T04:36:33;-0.60;67.20
4312;DHT22;2169;49.086;9.284;2023-02-16T04:39:00;-0.60;67.20
4312;DHT22;2169;49.086;9.284;2023-02-16T04:41:27;-0.70;67.10
4312;DHT22;2169;49.086;9.284;2023-02-16T04:43:54;-0.60;67.20
4312;DHT22;2169;49.086;9.284;2023-02-16T04:46:20;-0.70;67.10
4312;DHT22;2169;49.086;9.284;2023-02-16T04:48:48;-0.70;67.20
4312;DHT22;2169;49.086;9.284;2023-02-16T04:51:15;-0.70;67.20
4312;DHT22;2169;49.086;9.284;2023-02-16T04:53:43;-0.70;67.10
4312;DHT22;2169;49.086;9.284;2023-02-16T04:56:10;-0.70;67.20
4312;DHT22;2169;49.086;9.284;2023-02-16T04:58:37;-0.70;67.20
4312;DHT22;2169;49.086;9.284;2023-02-16T05:01:05;-0.80;67.20
4312;DHT22;2169;49.086;9.284;2023-02-16T05:03:32;-0.80;67.10
4312;DHT22;2169;49.086;9.284;2023-02-16T05:05:59;-0.80;67.20
4312;DHT22;2169;49.086;9.284;2023-02-16T05:08:26;-0.80;67.20
4312;DHT22;2169;49.086;9.284;2023-02-16T05:10:54;-0.80;67.10
4312;DHT22;2169;49.086;9.284;2023-02-16T05:13:35;-0.80;67.20
4312;DHT22;2169;49.086;9.284;2023-02-16T05:16:20;-0.80;67.20
4312;DHT22;2169;49.086;9.284;2023-02-16T05:18:47;-0.80;67.20
4312;DHT22;2169;49.086;9.284;2023-02-16T05:21:14;-0.90;67.10
4312;DHT22;2169;49.086;9.284;2023-02-16T05:24:02;-0.90;67.10
4312;DHT22;2169;49.086;9.284;2023-02-16T05:26:31;-0.90;67.10
4312;DHT22;2169;49.086;9.284;2023-02-16T05:28:58;-0.90;67.20
4312;DHT22;2169;49.086;9.284;2023-02-16T05:31:25;-0.90;67.80
4312;DHT22;2169;49.086;9.284;2023-02-16T05:33:52;-1.00;67.10
4312;DHT22;2169;49.086;9.284;2023-02-16T05:36:20;-1.00;67.10
4312;DHT22;2169;49.086;9.284;2023-02-16T05:38:47;-1.00;67.20
4312;DHT22;2169;49.086;9.284;2023-02-16T05:41:14;-1.00;67.20
4312;DHT22;2169;49.086;9.284;2023-02-16T05:43:50;-1.00;67.20
4312;DHT22;2169;49.086;9.284;2023-02-16T05:46:16;-1.00;67.20
4312;DHT22;2169;49.086;9.284;2023-02-16T05:48:43;-1.00;67.20
4312;DHT22;2169;49.086;9.284;2023-02-16T05:51:10;-1.10;67.10
4312;DHT22;2169;49.086;9.284;2023-02-16T05:53:37;-1.10;67.20
4312;DHT22;2169;49.086;9.284;2023-02-16T05:56:04;-1.10;67.20
4312;DHT22;2169;49.086;9.284;2023-02-16T05:58:31;-1.10;67.20
4312;DHT22;2169;49.086;9.284;2023-02-16T06:00:59;-1.10;67.30
4312;DHT22;2169;49.086;9.284;2023-02-16T06:03:26;-1.10;67.30
4312;DHT22;2169;49.086;9.284;2023-02-16T06:05:53;-1.10;67.30
4312;DHT22;2169;49.086;9.284;2023-02-16T06:08:20;-1.10;67.30
4312;DHT22;2169;49.086;9.284;2023-02-16T06:10:48;-1.10;68.00
4312;DHT22;2169;49.086;9.284;2023-02-16T06:13:15;-1.20;67.30
4312;DHT22;2169;49.086;9.284;2023-02-16T06:15:43;-1.20;67.30
4312;DHT22;2169;49.086;9.284;2023-02-16T06:18:11;-1.20;67.30
4312;DHT22;2169;49.086;9.284;2023-02-16T06:20:39;-1.20;67.30
4312;DHT22;2169;49.086;9.284;2023-02-16T06:23:08;-1.20;67.30
4312;DHT22;2169;49.086;9.284;2023-02-16T06:25:35;-1.20;67.30
4312;DHT22;2169;49.086;9.284;2023-02-16T06:28:02;-1.20;67.30
4312;DHT22;2169;49.086;9.284;2023-02-16T06:30:29;-1.20;67.40
4312;DHT22;2169;49.086;9.284;2023-02-16T06:32:56;-1.20;67.40
4312;DHT22;2169;49.086;9.284;2023-02-16T06:35:24;-1.30;67.30
4312;DHT22;2169;49.086;9.284;2023-02-16T06:37:51;-1.30;67.40
4312;DHT22;2169;49.086;9.284;2023-02-16T06:40:17;-1.30;67.40
4312;DHT22;2169;49.086;9.284;2023-02-16T06:42:44;-1.30;67.40
4312;DHT22;2169;49.086;9.284;2023-02-16T06:45:11;-1.30;67.50
4312;DHT22;2169;49.086;9.284;2023-02-16T06:47:38;-1.30;67.50
4312;DHT22;2169;49.086;9.284;2023-02-16T06:50:08;-1.30;67.50
4312;DHT22;2169;49.086;9.284;2023-02-16T06:52:37;-1.30;67.50
4312;DHT22;2169;49.086;9.284;2023-02-16T06:55:04;-1.30;67.50
4312;DHT22;2169;49.086;9.284;2023-02-16T06:57:31;-1.30;67.50
4312;DHT22;2169;49.086;9.284;2023-02-16T06:59:57;-1.30;68.20
4312;DHT22;2169;49.086;9.284;2023-02-16T07:02:24;-1.30;67.60
4312;DHT22;2169;49.086;9.284;2023-02-16T07:04:51;-1.30;67.50
4312;DHT22;2169;49.086;9.284;2023-02-16T07:07:18;-1.30;67.60
4312;DHT22;2169;49.086;9.284;2023-02-16T07:09:47;-1.30;67.60
4312;DHT22;2169;49.086;9.284;2023-02-16T07:12:13;-1.30;67.60
4312;DHT22;2169;49.086;9.284;2023-02-16T07:14:40;-1.30;67.60
4312;DHT22;2169;49.086;9.284;2023-02-16T07:17:07;-1.30;67.70
4312;DHT22;2169;49.086;9.284;2023-02-16T07:19:34;-1.30;67.70
4312;DHT22;2169;49.086;9.284;2023-02-16T07:22:01;-1.40;67.60
4312;DHT22;2169;49.086;9.284;2023-02-16T07:24:29;-1.30;67.70
4312;DHT22;2169;49.086;9.284;2023-02-16T07:26:57;-1.30;67.70
4312;DHT22;2169;49.086;9.284;2023-02-16T07:29:24;-1.30;67.70
4312;DHT22;2169;49.086;9.284;2023-02-16T07:31:51;-1.30;67.80
4312;DHT22;2169;49.086;9.284;2023-02-16T07:34:18;-1.30;67.80
4312;DHT22;2169;49.086;9.284;2023-02-16T07:36:44;-1.30;67.90
4312;DHT22;2169;49.086;9.284;2023-02-16T07:39:11;-1.30;67.90
4312;DHT22;2169;49.086;9.284;2023-02-16T07:41:38;-1.30;67.90
4312;DHT22;2169;49.086;9.284;2023-02-16T07:44:06;-1.30;67.90
4312;DHT22;2169;49.086;9.284;2023-02-16T07:46:33;-1.30;68.00
4312;DHT22;2169;49.086;9.284;2023-02-16T07:48:59;-1.20;68.10
4312;DHT22;2169;49.086;9.284;2023-02-16T07:51:28;-1.20;68.10
4312;DHT22;2169;49.086;9.284;2023-02-16T07:53:56;-1.20;68.20
4312;DHT22;2169;49.086;9.284;2023-02-16T07:56:25;-1.10;68.20
4312;DHT22;2169;49.086;9.284;2023-02-16T07:58:52;-1.10;68.30
4312;DHT22;2169;49.086;9.284;2023-02-16T08:01:21;-1.10;68.30
4312;DHT22;2169;49.086;9.284;2023-02-16T08:03:48;-1.00;68.40
4312;DHT22;2169;49.086;9.284;2023-02-16T08:06:15;-1.00;68.40
4312;DHT22;2169;49.086;9.284;2023-02-16T08:08:42;-1.00;68.40
4312;DHT22;2169;49.086;9.284;2023-02-16T08:11:10;-0.90;68.60
4312;DHT22;2169;49.086;9.284;2023-02-16T08:13:37;-0.90;68.60
4312;DHT22;2169;49.086;9.284;2023-02-16T08:16:07;-0.80;68.80
4312;DHT22;2169;49.086;9.284;2023-02-16T08:18:36;-0.80;68.80
4312;DHT22;2169;49.086;9.284;2023-02-16T08:21:07;-0.80;68.90
4312;DHT22;2169;49.086;9.284;2023-02-16T08:23:38;-0.70;69.00
4312;DHT22;2169;49.086;9.284;2023-02-16T08:26:07;-0.60;69.10
4312;DHT22;2169;49.086;9.284;2023-02-16T08:28:35;-0.60;69.20
4312;DHT22;2169;49.086;9.284;2023-02-16T08:31:04;-0.50;69.30
4312;DHT22;2169;49.086;9.284;2023-02-16T08:33:32;-0.40;69.40
4312;DHT22;2169;49.086;9.284;2023-02-16T08:36:00;-0.40;69.50
4312;DHT22;2169;49.086;9.284;2023-02-16T08:38:27;-0.30;69.60
4312;DHT22;2169;49.086;9.284;2023-02-16T08:40:57;-0.20;69.80
4312;DHT22;2169;49.086;9.284;2023-02-16T08:43:24;-0.20;69.90
4312;DHT22;2169;49.086;9.284;2023-02-16T08:45:51;0.00;70.20
4312;DHT22;2169;49.086;9.284;2023-02-16T08:48:18;0.00;70.40
4312;DHT22;2169;49.086;9.284;2023-02-16T08:50:47;0.20;70.70
4312;DHT22;2169;49.086;9.284;2023-02-16T08:53:21;0.30;71.00
4312;DHT22;2169;49.086;9.284;2023-02-16T08:55:52;0.50;71.40
4312;DHT22;2169;49.086;9.284;2023-02-16T08:58:20;0.60;71.80
4312;DHT22;2169;49.086;9.284;2023-02-16T09:00:47;0.80;72.10
4312;DHT22;2169;49.086;9.284;2023-02-16T09:03:14;1.00;72.50
4312;DHT22;2169;49.086;9.284;2023-02-16T09:05:43;1.20;72.90
4312;DHT22;2169;49.086;9.284;2023-02-16T09:08:10;1.40;73.20
4312;DHT22;2169;49.086;9.284;2023-02-16T09:10:38;1.60;73.50
4312;DHT22;2169;49.086;9.284;2023-02-16T09:13:05;1.80;73.80
4312;DHT22;2169;49.086;9.284;2023-02-16T09:15:35;2.00;74.10
4312;DHT22;2169;49.086;9.284;2023-02-16T09:18:02;2.20;74.40
4312;DHT22;2169;49.086;9.284;2023-02-16T09:20:29;2.40;74.60
4312;DHT22;2169;49.086;9.284;2023-02-16T09:22:56;2.60;74.90
4312;DHT22;2169;49.086;9.284;2023-02-16T09:25:23;2.80;75.00
4312;DHT22;2169;49.086;9.284;2023-02-16T09:27:51;3.10;75.40
4312;DHT22;2169;49.086;9.284;2023-02-16T09:30:18;3.30;75.90
4312;DHT22;2169;49.086;9.284;2023-02-16T09:32:45;3.50;75.60
4312;DHT22;2169;49.086;9.284;2023-02-16T09:35:12;3.70;75.80
4312;DHT22;2169;49.086;9.284;2023-02-16T09:37:38;3.90;75.90
4312;DHT22;2169;49.086;9.284;2023-02-16T09:40:08;4.10;76.00
4312;DHT22;2169;49.086;9.284;2023-02-16T09:42:51;4.30;76.00
4312;DHT22;2169;49.086;9.284;2023-02-16T09:45:22;4.50;76.10
4312;DHT22;2169;49.086;9.284;2023-02-16T09:47:51;4.70;76.10
4312;DHT22;2169;49.086;9.284;2023-02-16T09:50:21;4.90;76.10
4312;DHT22;2169;49.086;9.284;2023-02-16T09:52:53;5.10;76.20
4312;DHT22;2169;49.086;9.284;2023-02-16T09:55:24;5.30;76.00
4312;DHT22;2169;49.086;9.284;2023-02-16T09:58:00;5.50;75.90
4312;DHT22;2169;49.086;9.284;2023-02-16T10:00:41;5.70;75.80
4312;DHT22;2169;49.086;9.284;2023-02-16T10:03:20;5.90;76.30
4312;DHT22;2169;49.086;9.284;2023-02-16T10:05:54;6.00;75.30
4312;DHT22;2169;49.086;9.284;2023-02-16T10:08:25;6.20;75.00
4312;DHT22;2169;49.086;9.284;2023-02-16T10:11:02;6.30;74.70
4312;DHT22;2169;49.086;9.284;2023-02-16T10:13:36;6.50;74.40
4312;DHT22;2169;49.086;9.284;2023-02-16T10:16:11;6.60;74.10
4312;DHT22;2169;49.086;9.284;2023-02-16T10:18:43;6.80;73.90
4312;DHT22;2169;49.086;9.284;2023-02-16T10:21:15;6.90;73.50
4312;DHT22;2169;49.086;9.284;2023-02-16T10:23:45;7.10;73.20
4312;DHT22;2169;49.086;9.284;2023-02-16T10:26:17;7.20;72.90
4312;DHT22;2169;49.086;9.284;2023-02-16T10:28:48;7.40;72.60
4312;DHT22;2169;49.086;9.284;2023-02-16T10:31:26;7.50;72.20
4312;DHT22;2169;49.086;9.284;2023-02-16T10:34:08;7.60;71.80
4312;DHT22;2169;49.086;9.284;2023-02-16T10:36:56;7.70;71.50
4312;DHT22;2169;49.086;9.284;2023-02-16T10:39:28;7.90;71.00
4312;DHT22;2169;49.086;9.284;2023-02-16T10:42:05;8.00;70.60
4312;DHT22;2169;49.086;9.284;2023-02-16T10:44:37;8.10;70.30
4312;DHT22;2169;49.086;9.284;2023-02-16T10:47:12;8.20;69.80
4312;DHT22;2169;49.086;9.284;2023-02-16T10:49:40;8.30;69.20
4312;DHT22;2169;49.086;9.284;2023-02-16T10:52:08;8.40;68.70
4312;DHT22;2169;49.086;9.284;2023-02-16T10:54:36;8.50;68.50
4312;DHT22;2169;49.086;9.284;2023-02-16T10:57:04;8.60;69.00
4312;DHT22;2169;49.086;9.284;2023-02-16T10:59:37;8.70;68.10
4312;DHT22;2169;49.086;9.284;2023-02-16T11:02:17;8.80;67.80
4312;DHT22;2169;49.086;9.284;2023-02-16T11:04:45;8.90;67.50
4312;DHT22;2169;49.086;9.284;2023-02-16T11:07:14;9.00;67.30
4312;DHT22;2169;49.086;9.284;2023-02-16T11:09:43;9.10;67.10
4312;DHT22;2169;49.086;9.284;2023-02-16T11:12:15;9.20;66.80
4312;DHT22;2169;49.086;9.284;2023-02-16T11:14:47;9.30;66.50
4312;DHT22;2169;49.086;9.284;2023-02-16T11:17:17;9.40;66.30
4312;DHT22;2169;49.086;9.284;2023-02-16T11:19:51;9.50;66.10
4312;DHT22;2169;49.086;9.284;2023-02-16T11:22:29;9.60;66.10
4312;DHT22;2169;49.086;9.284;2023-02-16T11:24:56;9.60;65.50
4312;DHT22;2169;49.086;9.284;2023-02-16T11:27:48;9.70;65.30
4312;DHT22;2169;49.086;9.284;2023-02-16T11:30:18;9.80;65.00
4312;DHT22;2169;49.086;9.284;2023-02-16T11:32:50;9.80;64.80
4312;DHT22;2169;49.086;9.284;2023-02-16T11:35:17;9.90;64.60
4312;DHT22;2169;49.086;9.284;2023-02-16T11:37:45;10.00;63.50
4312;DHT22;2169;49.086;9.284;2023-02-16T11:40:19;10.00;63.30
4312;DHT22;2169;49.086;9.284;2023-02-16T11:42:49;10.10;63.20
4312;DHT22;2169;49.086;9.284;2023-02-16T11:45:26;10.20;63.10
4312;DHT22;2169;49.086;9.284;2023-02-16T11:47:56;10.20;62.80
4312;DHT22;2169;49.086;9.284;2023-02-16T11:50:25;10.30;62.70
4312;DHT22;2169;49.086;9.284;2023-02-16T11:52:54;10.40;62.70
4312;DHT22;2169;49.086;9.284;2023-02-16T11:55:25;10.40;62.50
4312;DHT22;2169;49.086;9.284;2023-02-16T11:57:52;10.50;62.40
4312;DHT22;2169;49.086;9.284;2023-02-16T12:00:23;10.60;62.30
4312;DHT22;2169;49.086;9.284;2023-02-16T12:03:16;10.70;62.00
4312;DHT22;2169;49.086;9.284;2023-02-16T12:05:58;10.70;61.70
4312;DHT22;2169;49.086;9.284;2023-02-16T12:08:35;10.80;61.60
4312;DHT22;2169;49.086;9.284;2023-02-16T12:11:17;10.90;61.20
4312;DHT22;2169;49.086;9.284;2023-02-16T12:13:59;11.00;61.00
4312;DHT22;2169;49.086;9.284;2023-02-16T12:16:34;11.00;60.60
4312;DHT22;2169;49.086;9.284;2023-02-16T12:19:17;11.10;60.50
4312;DHT22;2169;49.086;9.284;2023-02-16T12:21:50;11.20;59.90
4312;DHT22;2169;49.086;9.284;2023-02-16T12:24:26;11.30;59.60
4312;DHT22;2169;49.086;9.284;2023-02-16T12:26:57;11.40;59.40
4312;DHT22;2169;49.086;9.284;2023-02-16T12:29:38;11.40;59.30
4312;DHT22;2169;49.086;9.284;2023-02-16T12:32:18;11.50;59.10
4312;DHT22;2169;49.086;9.284;2023-02-16T12:35:02;11.50;58.70
4312;DHT22;2169;49.086;9.284;2023-02-16T12:37:37;11.60;58.80
4312;DHT22;2169;49.086;9.284;2023-02-16T12:40:15;11.70;59.00
4312;DHT22;2169;49.086;9.284;2023-02-16T12:42:57;11.70;58.90
4312;DHT22;2169;49.086;9.284;2023-02-16T12:45:31;11.80;58.80
4312;DHT22;2169;49.086;9.284;2023-02-16T12:48:03;11.80;58.70
4312;DHT22;2169;49.086;9.284;2023-02-16T12:50:34;11.90;58.60
4312;DHT22;2169;49.086;9.284;2023-02-16T12:53:05;11.90;58.60
4312;DHT22;2169;49.086;9.284;2023-02-16T12:55:37;12.00;58.60
4312;DHT22;2169;49.086;9.284;2023-02-16T12:58:13;12.00;58.30
4312;DHT22;2169;49.086;9.284;2023-02-16T13:00:45;12.00;58.20
4312;DHT22;2169;49.086;9.284;2023-02-16T13:03:24;12.10;58.30
4312;DHT22;2169;49.086;9.284;2023-02-16T13:06:01;12.20;58.30
4312;DHT22;2169;49.086;9.284;2023-02-16T13:08:35;12.20;58.30
4312;DHT22;2169;49.086;9.284;2023-02-16T13:11:09;12.30;58.20
4312;DHT22;2169;49.086;9.284;2023-02-16T13:13:39;12.30;58.10
4312;DHT22;2169;49.086;9.284;2023-02-16T13:16:13;12.30;58.20
4312;DHT22;2169;49.086;9.284;2023-02-16T13:18:43;12.40;58.10
4312;DHT22;2169;49.086;9.284;2023-02-16T13:21:28;12.40;58.10
4312;DHT22;2169;49.086;9.284;2023-02-16T13:24:02;12.50;58.10
4312;DHT22;2169;49.086;9.284;2023-02-16T13:26:45;12.50;58.00
4312;DHT22;2169;49.086;9.284;2023-02-16T13:29:38;12.60;57.90
4312;DHT22;2169;49.086;9.284;2023-02-16T13:32:22;12.60;57.80
4312;DHT22;2169;49.086;9.284;2023-02-16T13:35:15;12.60;57.70
4312;DHT22;2169;49.086;9.284;2023-02-16T13:38:08;12.70;57.80
4312;DHT22;2169;49.086;9.284;2023-02-16T13:41:03;12.70;57.60
4312;DHT22;2169;49.086;9.284;2023-02-16T13:43:35;12.70;57.50
4312;DHT22;2169;49.086;9.284;2023-02-16T13:46:10;12.70;57.40
4312;DHT22;2169;49.086;9.284;2023-02-16T13:48:45;12.80;57.50
4312;DHT22;2169;49.086;9.284;2023-02-16T13:51:15;12.80;57.40
4312;DHT22;2169;49.086;9.284;2023-02-16T13:53:51;12.80;57.40
4312;DHT22;2169;49.086;9.284;2023-02-16T13:56:30;12.90;57.40
4312;DHT22;2169;49.086;9.284;2023-02-16T13:58:59;12.90;57.40
4312;DHT22;2169;49.086;9.284;2023-02-16T14:01:47;13.00;57.50
4312;DHT22;2169;49.086;9.284;2023-02-16T14:07:32;13.00;57.20
4312;DHT22;2169;49.086;9.284;2023-02-16T14:10:00;13.00;57.20
4312;DHT22;2169;49.086;9.284;2023-02-16T14:12:28;13.10;57.30
4312;DHT22;2169;49.086;9.284;2023-02-16T14:15:00;13.10;57.20
4312;DHT22;2169;49.086;9.284;2023-02-16T14:17:31;13.10;57.20
4312;DHT22;2169;49.086;9.284;2023-02-16T14:20:00;13.20;57.20
4312;DHT22;2169;49.086;9.284;2023-02-16T14:22:35;13.20;57.20
4312;DHT22;2169;49.086;9.284;2023-02-16T14:25:05;13.20;57.10
4312;DHT22;2169;49.086;9.284;2023-02-16T14:27:54;13.20;56.90
4312;DHT22;2169;49.086;9.284;2023-02-16T14:30:26;13.20;56.80
4312;DHT22;2169;49.086;9.284;2023-02-16T14:33:00;13.30;56.90
4312;DHT22;2169;49.086;9.284;2023-02-16T14:35:31;13.30;56.70
4312;DHT22;2169;49.086;9.284;2023-02-16T14:38:00;13.30;56.70
4312;DHT22;2169;49.086;9.284;2023-02-16T14:40:42;13.30;56.60
4312;DHT22;2169;49.086;9.284;2023-02-16T14:43:22;13.30;56.50
4312;DHT22;2169;49.086;9.284;2023-02-16T14:45:58;13.40;56.50
4312;DHT22;2169;49.086;9.284;2023-02-16T14:55:02;13.40;56.30
4312;DHT22;2169;49.086;9.284;2023-02-16T14:57:39;13.40;56.20
4312;DHT22;2169;49.086;9.284;2023-02-16T15:00:14;13.40;56.20
4312;DHT22;2169;49.086;9.284;2023-02-16T15:02:54;13.40;56.20
4312;DHT22;2169;49.086;9.284;2023-02-16T15:05:24;13.50;56.10
4312;DHT22;2169;49.086;9.284;2023-02-16T15:07:59;13.50;56.10
4312;DHT22;2169;49.086;9.284;2023-02-16T15:10:28;13.50;55.90
4312;DHT22;2169;49.086;9.284;2023-02-16T15:12:57;13.50;55.80
4312;DHT22;2169;49.086;9.284;2023-02-16T15:15:27;13.50;55.80
4312;DHT22;2169;49.086;9.284;2023-02-16T15:17:55;13.60;55.80
4312;DHT22;2169;49.086;9.284;2023-02-16T15:20:27;13.60;55.70
4312;DHT22;2169;49.086;9.284;2023-02-16T15:22:56;13.60;55.60
4312;DHT22;2169;49.086;9.284;2023-02-16T15:25:26;13.60;55.60
4312;DHT22;2169;49.086;9.284;2023-02-16T15:27:56;13.60;55.50
4312;DHT22;2169;49.086;9.284;2023-02-16T15:30:26;13.60;55.50
4312;DHT22;2169;49.086;9.284;2023-02-16T15:32:56;13.70;55.50
4312;DHT22;2169;49.086;9.284;2023-02-16T15:35:28;13.60;55.40
4312;DHT22;2169;49.086;9.284;2023-02-16T15:38:19;13.70;55.40
4312;DHT22;2169;49.086;9.284;2023-02-16T15:40:46;13.70;55.30
4312;DHT22;2169;49.086;9.284;2023-02-16T15:43:22;13.70;55.30
4312;DHT22;2169;49.086;9.284;2023-02-16T15:45:52;13.70;55.20
4312;DHT22;2169;49.086;9.284;2023-02-16T15:48:22;13.60;55.00
4312;DHT22;2169;49.086;9.284;2023-02-16T15:50:53;13.70;55.10
4312;DHT22;2169;49.086;9.284;2023-02-16T15:53:31;13.70;55.10
4312;DHT22;2169;49.086;9.284;2023-02-16T15:56:01;13.60;54.90
4312;DHT22;2169;49.086;9.284;2023-02-16T15:58:28;13.60;55.00
4312;DHT22;2169;49.086;9.284;2023-02-16T16:00:57;13.60;54.90
4312;DHT22;2169;49.086;9.284;2023-02-16T16:03:24;13.60;54.80
4312;DHT22;2169;49.086;9.284;2023-02-16T16:06:02;13.60;54.80
4312;DHT22;2169;49.086;9.284;2023-02-16T16:08:43;13.60;54.70
4312;DHT22;2169;49.086;9.284;2023-02-16T16:11:14;13.50;54.60
4312;DHT22;2169;49.086;9.284;2023-02-16T16:13:43;13.50;54.80
4312;DHT22;2169;49.086;9.284;2023-02-16T16:16:13;13.50;54.80
4312;DHT22;2169;49.086;9.284;2023-02-16T16:18:44;13.50;54.80
4312;DHT22;2169;49.086;9.284;2023-02-16T16:21:28;13.50;55.00
4312;DHT22;2169;49.086;9.284;2023-02-16T16:24:01;13.40;55.10
4312;DHT22;2169;49.086;9.284;2023-02-16T16:26:30;13.40;55.40
4312;DHT22;2169;49.086;9.284;2023-02-16T16:28:58;13.30;55.50
4312;DHT22;2169;49.086;9.284;2023-02-16T16:31:39;13.30;55.60
4312;DHT22;2169;49.086;9.284;2023-02-16T16:34:13;13.30;55.70
4312;DHT22;2169;49.086;9.284;2023-02-16T16:36:58;13.20;55.80
4312;DHT22;2169;49.086;9.284;2023-02-16T16:39:28;13.10;56.00
4312;DHT22;2169;49.086;9.284;2023-02-16T16:42:21;13.10;56.10
4312;DHT22;2169;49.086;9.284;2023-02-16T16:44:59;13.00;56.10
4312;DHT22;2169;49.086;9.284;2023-02-16T16:47:31;13.00;56.30
4312;DHT22;2169;49.086;9.284;2023-02-16T16:50:00;12.90;56.30